South Charleston, OH (45368)

4:21 PM EST on December 19, 2014 (GMT -0500)
Werner Ent. Springfield, OH | Change Station
CLOSE
Current Station
Personal Weather Station
Location: Springfield, OH
Elevation: 1048 ft
Nearby Weather Stations

Elev 1048 ft 39.90 °N, 83.73 °W | Updated 16 seconds ago

Overcast
Overcast
30.6 °F
Feels Like 31 °F
N
1.0
Wind Variable Wind from ENE
Gusts 4.0 mph

Today
High -- | Low -- °F
--% Chance of Precip.
Yesterday
High -- | Low -- °F
Precip. -- in
7:51 AM 5:12 PM
Waning Crescent, 6% visible
Pressure 30.30 in
Visibility 6.0 miles
Clouds Overcast 2000 ft
Windchill 31 °F
Dew Point 25 °F
Humidity 80%
Rainfall 0.00 in
Snow Depth Not available.
UV 0.0 out of 12
Pollen .10 out of 12
Air Quality Not available.
Flu Activity Not available.
METAR KSGH 192056Z AUTO 00000KT 6SM HZ OVC020 M02/M04 A3026 RMK AO2 50002 T10161044 SLP258

More Conditions Fewer Conditions

Pressure 30.30 in
Visibility 6.0 miles
Clouds Overcast 2000 ft
Windchill 31 °F
Dew Point 25 °F
Humidity 80%
Rainfall 0.00 in
Snow Depth Not available.
UV 0.0 out of 12
Pollen .10 out of 12
Air Quality Not available.
Flu Activity Not available.
METAR KSGH 192056Z AUTO 00000KT 6SM HZ OVC020 M02/M04 A3026 RMK AO2 50002 T10161044 SLP258

More Conditions Fewer Conditions

10-Day Weather Forecast

Almanac

Astronomy

Dec. 19, 2014 Rise Set
Actual Time
Civil Twilight
Nautical Twilight
Astronomical Twilight
Moon
Length of Visible Light
Length of Day
Tomorrow will be .
, % of the Moon is Illuminated

Today's Extremes

State Highs State Lows

Community

WunderPhotos

Upload Photos

1,779,057 photos uploaded!

WunderBlogs® & News

Nearby

Air Quality

  Air Quality AQ Index Pollutant
Not available.

Snow Depth

Station Depth Elevation

Earthquake Activity

City Distance Mag. Time & Date
Minimum magnitude displayed is 2.5.

Coastal Water Temperatures

Place Temperature

Nearby Weather Stations